sensor_id;sensor_type;location;lat;lon;timestamp;pressure;altitude;pressure_sealevel;temperature;humidity
70916;BME280;58557;50.982;-3.222;2023-04-30T00:02:17;101429.29;;;15.42;47.53
70916;BME280;58557;50.982;-3.222;2023-04-30T00:04:42;101428.58;;;14.94;46.98
70916;BME280;58557;50.982;-3.222;2023-04-30T00:07:08;101427.35;;;15.25;47.28
70916;BME280;58557;50.982;-3.222;2023-04-30T00:09:33;101427.54;;;15.20;47.64
70916;BME280;58557;50.982;-3.222;2023-04-30T00:11:59;101426.31;;;15.21;48.11
70916;BME280;58557;50.982;-3.222;2023-04-30T00:14:24;101425.36;;;16.31;45.93
70916;BME280;58557;50.982;-3.222;2023-04-30T00:16:49;101419.64;;;15.78;44.88
70916;BME280;58557;50.982;-3.222;2023-04-30T00:19:15;101416.61;;;15.50;46.76
70916;BME280;58557;50.982;-3.222;2023-04-30T00:21:40;101416.26;;;15.88;45.81
70916;BME280;58557;50.982;-3.222;2023-04-30T00:24:05;101415.30;;;15.17;46.67
70916;BME280;58557;50.982;-3.222;2023-04-30T00:26:30;101413.13;;;14.61;47.28
70916;BME280;58557;50.982;-3.222;2023-04-30T00:28:56;101411.35;;;14.92;46.90
70916;BME280;58557;50.982;-3.222;2023-04-30T00:31:21;101412.56;;;14.23;49.08
70916;BME280;58557;50.982;-3.222;2023-04-30T00:33:47;101413.41;;;14.69;49.20
70916;BME280;58557;50.982;-3.222;2023-04-30T00:36:14;101413.56;;;15.02;48.41
70916;BME280;58557;50.982;-3.222;2023-04-30T00:38:38;101412.93;;;15.47;47.08
70916;BME280;58557;50.982;-3.222;2023-04-30T00:41:03;101413.31;;;15.34;47.52
70916;BME280;58557;50.982;-3.222;2023-04-30T00:43:29;101408.87;;;16.60;45.38
70916;BME280;58557;50.982;-3.222;2023-04-30T00:45:55;101407.61;;;15.37;49.27
70916;BME280;58557;50.982;-3.222;2023-04-30T00:48:20;101407.54;;;16.34;46.05
70916;BME280;58557;50.982;-3.222;2023-04-30T00:50:46;101402.30;;;16.08;46.60
70916;BME280;58557;50.982;-3.222;2023-04-30T00:53:12;101402.08;;;15.43;46.50
70916;BME280;58557;50.982;-3.222;2023-04-30T00:55:37;101403.13;;;16.24;46.04
70916;BME280;58557;50.982;-3.222;2023-04-30T00:58:02;101400.66;;;16.16;46.14
70916;BME280;58557;50.982;-3.222;2023-04-30T01:00:27;101399.80;;;15.23;47.94
70916;BME280;58557;50.982;-3.222;2023-04-30T01:02:52;101400.97;;;15.95;47.26
70916;BME280;58557;50.982;-3.222;2023-04-30T01:05:18;101394.92;;;16.25;47.26
70916;BME280;58557;50.982;-3.222;2023-04-30T01:07:44;101393.82;;;15.31;48.25
70916;BME280;58557;50.982;-3.222;2023-04-30T01:10:09;101394.65;;;15.60;48.72
70916;BME280;58557;50.982;-3.222;2023-04-30T01:12:38;101394.20;;;15.27;48.41
70916;BME280;58557;50.982;-3.222;2023-04-30T01:15:06;101399.51;;;16.42;47.27
70916;BME280;58557;50.982;-3.222;2023-04-30T01:17:33;101400.50;;;15.82;47.25
70916;BME280;58557;50.982;-3.222;2023-04-30T01:19:51;101400.99;;;15.45;48.51
70916;BME280;58557;50.982;-3.222;2023-04-30T01:22:26;101401.46;;;15.53;49.37
70916;BME280;58557;50.982;-3.222;2023-04-30T01:24:59;101402.74;;;15.99;48.09
70916;BME280;58557;50.982;-3.222;2023-04-30T01:27:14;101404.71;;;16.47;47.32
70916;BME280;58557;50.982;-3.222;2023-04-30T01:29:33;101405.47;;;15.40;48.49
70916;BME280;58557;50.982;-3.222;2023-04-30T01:31:58;101408.63;;;15.90;47.68
70916;BME280;58557;50.982;-3.222;2023-04-30T01:34:24;101410.22;;;16.27;47.52
70916;BME280;58557;50.982;-3.222;2023-04-30T01:36:59;101413.39;;;16.48;47.40
70916;BME280;58557;50.982;-3.222;2023-04-30T01:39:25;101414.81;;;16.84;46.37
70916;BME280;58557;50.982;-3.222;2023-04-30T01:41:47;101411.62;;;16.12;47.40
70916;BME280;58557;50.982;-3.222;2023-04-30T01:44:17;101409.77;;;15.86;47.31
70916;BME280;58557;50.982;-3.222;2023-04-30T01:46:31;101410.59;;;16.42;46.87
70916;BME280;58557;50.982;-3.222;2023-04-30T01:49:04;101409.00;;;16.36;47.11
70916;BME280;58557;50.982;-3.222;2023-04-30T01:51:27;101402.04;;;15.63;48.46
70916;BME280;58557;50.982;-3.222;2023-04-30T01:53:48;101397.37;;;14.97;49.08
70916;BME280;58557;50.982;-3.222;2023-04-30T01:56:22;101401.05;;;15.42;49.07
70916;BME280;58557;50.982;-3.222;2023-04-30T01:58:40;101395.09;;;15.50;49.36
70916;BME280;58557;50.982;-3.222;2023-04-30T02:01:04;101389.78;;;15.26;48.86
70916;BME280;58557;50.982;-3.222;2023-04-30T02:03:31;101389.89;;;15.65;48.64
70916;BME280;58557;50.982;-3.222;2023-04-30T02:05:55;101388.94;;;14.59;49.11
70916;BME280;58557;50.982;-3.222;2023-04-30T02:08:20;101392.00;;;15.72;48.72
70916;BME280;58557;50.982;-3.222;2023-04-30T02:10:46;101389.03;;;15.28;48.90
70916;BME280;58557;50.982;-3.222;2023-04-30T02:13:11;101387.47;;;15.55;48.79
70916;BME280;58557;50.982;-3.222;2023-04-30T02:15:37;101389.22;;;15.60;47.63
70916;BME280;58557;50.982;-3.222;2023-04-30T02:18:03;101391.10;;;16.12;47.67
70916;BME280;58557;50.982;-3.222;2023-04-30T02:20:28;101392.13;;;16.41;46.57
70916;BME280;58557;50.982;-3.222;2023-04-30T02:22:53;101395.75;;;16.16;46.49
70916;BME280;58557;50.982;-3.222;2023-04-30T02:25:19;101398.66;;;15.75;47.52
70916;BME280;58557;50.982;-3.222;2023-04-30T02:27:45;101398.34;;;15.93;48.49
70916;BME280;58557;50.982;-3.222;2023-04-30T02:30:10;101399.87;;;16.53;47.33
70916;BME280;58557;50.982;-3.222;2023-04-30T02:32:36;101399.80;;;16.63;46.68
70916;BME280;58557;50.982;-3.222;2023-04-30T02:35:02;101400.34;;;16.35;46.95
70916;BME280;58557;50.982;-3.222;2023-04-30T02:37:27;101396.13;;;16.45;46.58
70916;BME280;58557;50.982;-3.222;2023-04-30T02:39:53;101396.41;;;15.87;46.94
70916;BME280;58557;50.982;-3.222;2023-04-30T02:42:18;101396.18;;;15.71;48.08
70916;BME280;58557;50.982;-3.222;2023-04-30T02:44:44;101400.92;;;14.24;51.37
70916;BME280;58557;50.982;-3.222;2023-04-30T02:47:09;101399.99;;;14.20;55.27
70916;BME280;58557;50.982;-3.222;2023-04-30T02:49:34;101397.46;;;15.49;51.40
70916;BME280;58557;50.982;-3.222;2023-04-30T02:51:59;101392.10;;;15.69;51.10
70916;BME280;58557;50.982;-3.222;2023-04-30T02:54:25;101388.49;;;15.72;50.71
70916;BME280;58557;50.982;-3.222;2023-04-30T02:56:51;101388.45;;;16.00;49.39
70916;BME280;58557;50.982;-3.222;2023-04-30T02:59:16;101387.10;;;15.65;48.85
70916;BME280;58557;50.982;-3.222;2023-04-30T03:01:42;101382.07;;;15.60;50.55
70916;BME280;58557;50.982;-3.222;2023-04-30T03:04:08;101383.31;;;15.47;51.25
70916;BME280;58557;50.982;-3.222;2023-04-30T03:06:33;101386.53;;;15.66;50.07
70916;BME280;58557;50.982;-3.222;2023-04-30T03:08:59;101387.98;;;15.37;50.88
70916;BME280;58557;50.982;-3.222;2023-04-30T03:11:24;101387.23;;;15.17;51.27
70916;BME280;58557;50.982;-3.222;2023-04-30T03:13:49;101386.17;;;14.72;52.13
70916;BME280;58557;50.982;-3.222;2023-04-30T03:16:16;101385.82;;;15.61;50.18
70916;BME280;58557;50.982;-3.222;2023-04-30T03:18:40;101387.77;;;15.12;50.11
70916;BME280;58557;50.982;-3.222;2023-04-30T03:21:06;101395.58;;;14.49;52.52
70916;BME280;58557;50.982;-3.222;2023-04-30T03:23:31;101402.37;;;10.91;62.07
70916;BME280;58557;50.982;-3.222;2023-04-30T03:25:56;101395.60;;;14.54;56.30
70916;BME280;58557;50.982;-3.222;2023-04-30T03:28:21;101392.83;;;14.88;52.77
70916;BME280;58557;50.982;-3.222;2023-04-30T03:30:47;101391.33;;;14.60;54.59
70916;BME280;58557;50.982;-3.222;2023-04-30T03:33:13;101392.21;;;14.40;55.24
70916;BME280;58557;50.982;-3.222;2023-04-30T03:35:38;101388.59;;;15.39;53.50
70916;BME280;58557;50.982;-3.222;2023-04-30T03:38:03;101392.03;;;14.44;53.90
70916;BME280;58557;50.982;-3.222;2023-04-30T03:40:29;101386.71;;;15.05;52.78
70916;BME280;58557;50.982;-3.222;2023-04-30T03:42:54;101383.73;;;14.96;53.17
70916;BME280;58557;50.982;-3.222;2023-04-30T03:45:19;101386.78;;;15.25;51.94
70916;BME280;58557;50.982;-3.222;2023-04-30T03:47:45;101385.62;;;14.41;52.35
70916;BME280;58557;50.982;-3.222;2023-04-30T03:50:10;101386.17;;;15.58;52.14
70916;BME280;58557;50.982;-3.222;2023-04-30T03:52:36;101385.52;;;15.83;51.84
70916;BME280;58557;50.982;-3.222;2023-04-30T03:55:01;101387.68;;;15.66;51.31
70916;BME280;58557;50.982;-3.222;2023-04-30T03:57:26;101384.24;;;15.27;50.67
70916;BME280;58557;50.982;-3.222;2023-04-30T03:59:51;101385.09;;;14.99;53.26
70916;BME280;58557;50.982;-3.222;2023-04-30T04:02:17;101389.87;;;15.62;51.41
70916;BME280;58557;50.982;-3.222;2023-04-30T04:04:43;101388.71;;;15.98;49.41
70916;BME280;58557;50.982;-3.222;2023-04-30T04:07:08;101387.02;;;15.14;51.82
70916;BME280;58557;50.982;-3.222;2023-04-30T04:09:33;101386.28;;;15.76;49.50
70916;BME280;58557;50.982;-3.222;2023-04-30T04:11:58;101386.68;;;16.08;49.89
70916;BME280;58557;50.982;-3.222;2023-04-30T04:14:24;101385.50;;;16.41;49.22
70916;BME280;58557;50.982;-3.222;2023-04-30T04:16:49;101384.82;;;16.16;49.23
70916;BME280;58557;50.982;-3.222;2023-04-30T04:19:14;101382.94;;;16.11;50.27
70916;BME280;58557;50.982;-3.222;2023-04-30T04:21:40;101378.50;;;16.57;48.52
70916;BME280;58557;50.982;-3.222;2023-04-30T04:24:06;101373.56;;;15.82;50.90
70916;BME280;58557;50.982;-3.222;2023-04-30T04:26:31;101371.72;;;15.24;51.32
70916;BME280;58557;50.982;-3.222;2023-04-30T04:28:56;101375.36;;;15.82;50.81
70916;BME280;58557;50.982;-3.222;2023-04-30T04:31:21;101380.43;;;16.13;49.91
70916;BME280;58557;50.982;-3.222;2023-04-30T04:33:47;101380.75;;;16.08;49.25
70916;BME280;58557;50.982;-3.222;2023-04-30T04:36:12;101375.10;;;16.40;49.93
70916;BME280;58557;50.982;-3.222;2023-04-30T04:38:37;101375.37;;;16.35;49.73
70916;BME280;58557;50.982;-3.222;2023-04-30T04:41:02;101374.13;;;16.01;49.88
70916;BME280;58557;50.982;-3.222;2023-04-30T04:43:28;101371.81;;;16.95;48.34
70916;BME280;58557;50.982;-3.222;2023-04-30T04:45:53;101372.52;;;16.22;50.15
70916;BME280;58557;50.982;-3.222;2023-04-30T04:48:19;101368.85;;;15.87;49.50
70916;BME280;58557;50.982;-3.222;2023-04-30T04:50:44;101362.36;;;15.31;51.92
70916;BME280;58557;50.982;-3.222;2023-04-30T04:53:10;101361.24;;;15.43;53.10
70916;BME280;58557;50.982;-3.222;2023-04-30T04:55:35;101359.05;;;14.57;55.44
70916;BME280;58557;50.982;-3.222;2023-04-30T04:58:00;101360.06;;;13.88;56.91
70916;BME280;58557;50.982;-3.222;2023-04-30T05:00:25;101364.69;;;14.14;57.36
70916;BME280;58557;50.982;-3.222;2023-04-30T05:02:51;101360.43;;;14.03;57.02
70916;BME280;58557;50.982;-3.222;2023-04-30T05:05:16;101362.77;;;14.28;57.39
70916;BME280;58557;50.982;-3.222;2023-04-30T05:07:41;101367.33;;;14.37;56.77
70916;BME280;58557;50.982;-3.222;2023-04-30T05:10:07;101365.81;;;14.69;55.76
70916;BME280;58557;50.982;-3.222;2023-04-30T05:12:32;101362.34;;;14.90;54.10
70916;BME280;58557;50.982;-3.222;2023-04-30T05:14:57;101360.96;;;14.14;54.62
70916;BME280;58557;50.982;-3.222;2023-04-30T05:17:22;101360.75;;;14.19;55.77
70916;BME280;58557;50.982;-3.222;2023-04-30T05:19:48;101360.74;;;14.49;55.84
70916;BME280;58557;50.982;-3.222;2023-04-30T05:22:13;101362.67;;;14.33;56.23
70916;BME280;58557;50.982;-3.222;2023-04-30T05:24:38;101363.13;;;14.78;56.69
70916;BME280;58557;50.982;-3.222;2023-04-30T05:27:04;101358.61;;;13.85;57.14
70916;BME280;58557;50.982;-3.222;2023-04-30T05:29:29;101363.21;;;12.90;61.24
70916;BME280;58557;50.982;-3.222;2023-04-30T05:31:55;101362.03;;;13.58;60.03
70916;BME280;58557;50.982;-3.222;2023-04-30T05:34:21;101359.40;;;13.62;60.52
70916;BME280;58557;50.982;-3.222;2023-04-30T05:36:46;101357.98;;;12.30;63.20
70916;BME280;58557;50.982;-3.222;2023-04-30T05:39:11;101362.28;;;13.90;60.84
70916;BME280;58557;50.982;-3.222;2023-04-30T05:41:36;101363.00;;;14.41;58.67
70916;BME280;58557;50.982;-3.222;2023-04-30T05:44:01;101360.20;;;14.53;56.25
70916;BME280;58557;50.982;-3.222;2023-04-30T05:46:26;101359.80;;;14.64;56.24
70916;BME280;58557;50.982;-3.222;2023-04-30T05:48:52;101359.23;;;14.76;55.71
70916;BME280;58557;50.982;-3.222;2023-04-30T05:51:18;101357.75;;;15.14;55.45
70916;BME280;58557;50.982;-3.222;2023-04-30T05:53:43;101357.53;;;14.97;55.50
70916;BME280;58557;50.982;-3.222;2023-04-30T05:56:09;101358.06;;;14.81;56.68
70916;BME280;58557;50.982;-3.222;2023-04-30T05:58:35;101357.24;;;15.25;54.12
70916;BME280;58557;50.982;-3.222;2023-04-30T06:01:00;101354.23;;;15.50;53.03
70916;BME280;58557;50.982;-3.222;2023-04-30T06:03:26;101355.46;;;15.93;52.46
70916;BME280;58557;50.982;-3.222;2023-04-30T06:05:53;101354.73;;;15.93;51.76
70916;BME280;58557;50.982;-3.222;2023-04-30T06:08:17;101353.32;;;15.83;53.32
70916;BME280;58557;50.982;-3.222;2023-04-30T06:10:42;101348.12;;;15.67;53.50
70916;BME280;58557;50.982;-3.222;2023-04-30T06:13:08;101353.94;;;16.07;53.50
70916;BME280;58557;50.982;-3.222;2023-04-30T06:15:33;101349.89;;;14.81;54.26
70916;BME280;58557;50.982;-3.222;2023-04-30T06:17:58;101351.34;;;14.67;55.13
70916;BME280;58557;50.982;-3.222;2023-04-30T06:20:24;101354.76;;;14.96;53.94
70916;BME280;58557;50.982;-3.222;2023-04-30T06:22:49;101349.20;;;14.68;56.14
70916;BME280;58557;50.982;-3.222;2023-04-30T06:25:15;101352.59;;;14.65;56.84
70916;BME280;58557;50.982;-3.222;2023-04-30T06:27:40;101346.12;;;14.76;58.08
70916;BME280;58557;50.982;-3.222;2023-04-30T06:30:07;101348.33;;;14.57;57.96
70916;BME280;58557;50.982;-3.222;2023-04-30T06:32:31;101349.89;;;13.54;62.35
70916;BME280;58557;50.982;-3.222;2023-04-30T06:34:57;101349.62;;;13.12;63.73
70916;BME280;58557;50.982;-3.222;2023-04-30T06:37:22;101351.55;;;12.56;66.07
70916;BME280;58557;50.982;-3.222;2023-04-30T06:39:48;101355.93;;;12.03;68.79
70916;BME280;58557;50.982;-3.222;2023-04-30T06:42:14;101351.63;;;13.78;65.41
70916;BME280;58557;50.982;-3.222;2023-04-30T06:44:39;101355.11;;;14.80;60.67
70916;BME280;58557;50.982;-3.222;2023-04-30T06:47:05;101356.37;;;14.74;60.00
70916;BME280;58557;50.982;-3.222;2023-04-30T06:49:30;101354.56;;;14.38;59.80
70916;BME280;58557;50.982;-3.222;2023-04-30T06:51:55;101359.69;;;13.65;61.33
70916;BME280;58557;50.982;-3.222;2023-04-30T06:54:20;101361.64;;;14.34;60.72
70916;BME280;58557;50.982;-3.222;2023-04-30T06:56:51;101363.21;;;14.09;60.67
70916;BME280;58557;50.982;-3.222;2023-04-30T06:59:11;101364.06;;;15.48;59.28
70916;BME280;58557;50.982;-3.222;2023-04-30T07:01:37;101361.62;;;14.51;58.31
70916;BME280;58557;50.982;-3.222;2023-04-30T07:04:02;101365.52;;;13.94;60.53
70916;BME280;58557;50.982;-3.222;2023-04-30T07:06:28;101363.15;;;14.05;60.96
70916;BME280;58557;50.982;-3.222;2023-04-30T07:08:53;101361.52;;;14.79;61.12
70916;BME280;58557;50.982;-3.222;2023-04-30T07:11:19;101364.96;;;14.49;59.41
70916;BME280;58557;50.982;-3.222;2023-04-30T07:13:45;101367.59;;;14.11;61.75
70916;BME280;58557;50.982;-3.222;2023-04-30T07:16:10;101365.68;;;15.21;59.12
70916;BME280;58557;50.982;-3.222;2023-04-30T07:18:35;101365.66;;;16.00;58.58
70916;BME280;58557;50.982;-3.222;2023-04-30T07:21:01;101370.39;;;16.51;54.98
70916;BME280;58557;50.982;-3.222;2023-04-30T07:23:26;101370.19;;;15.82;54.88
70916;BME280;58557;50.982;-3.222;2023-04-30T07:25:52;101369.39;;;16.05;55.14
70916;BME280;58557;50.982;-3.222;2023-04-30T07:28:18;101366.92;;;15.28;57.25
70916;BME280;58557;50.982;-3.222;2023-04-30T07:30:42;101365.71;;;15.46;56.47
70916;BME280;58557;50.982;-3.222;2023-04-30T07:33:13;101362.29;;;15.35;57.55
70916;BME280;58557;50.982;-3.222;2023-04-30T07:35:34;101371.89;;;15.91;57.04
70916;BME280;58557;50.982;-3.222;2023-04-30T07:37:59;101371.31;;;16.52;55.04
70916;BME280;58557;50.982;-3.222;2023-04-30T07:40:25;101372.36;;;16.16;55.83
70916;BME280;58557;50.982;-3.222;2023-04-30T07:42:50;101371.76;;;16.71;54.95
70916;BME280;58557;50.982;-3.222;2023-04-30T07:45:16;101373.33;;;16.75;53.87
70916;BME280;58557;50.982;-3.222;2023-04-30T07:47:42;101375.19;;;16.92;53.51
70916;BME280;58557;50.982;-3.222;2023-04-30T07:50:08;101371.95;;;16.64;53.31
70916;BME280;58557;50.982;-3.222;2023-04-30T07:52:32;101374.88;;;17.03;52.80
70916;BME280;58557;50.982;-3.222;2023-04-30T07:54:58;101371.43;;;17.71;51.24
70916;BME280;58557;50.982;-3.222;2023-04-30T07:57:24;101371.40;;;17.51;51.23
70916;BME280;58557;50.982;-3.222;2023-04-30T07:59:50;101373.07;;;18.47;49.88
70916;BME280;58557;50.982;-3.222;2023-04-30T08:02:15;101371.67;;;17.66;49.21
70916;BME280;58557;50.982;-3.222;2023-04-30T08:04:41;101377.66;;;18.22;48.37
70916;BME280;58557;50.982;-3.222;2023-04-30T08:07:06;101383.13;;;18.36;48.14
70916;BME280;58557;50.982;-3.222;2023-04-30T08:09:31;101386.53;;;18.22;48.94
70916;BME280;58557;50.982;-3.222;2023-04-30T08:11:57;101379.92;;;17.74;48.38
70916;BME280;58557;50.982;-3.222;2023-04-30T08:14:22;101382.01;;;17.31;48.63
70916;BME280;58557;50.982;-3.222;2023-04-30T08:16:47;101380.34;;;17.61;48.27
70916;BME280;58557;50.982;-3.222;2023-04-30T08:19:13;101383.19;;;16.97;50.10
70916;BME280;58557;50.982;-3.222;2023-04-30T08:21:39;101384.59;;;16.81;51.14
70916;BME280;58557;50.982;-3.222;2023-04-30T08:24:04;101387.28;;;16.44;52.82
70916;BME280;58557;50.982;-3.222;2023-04-30T08:26:29;101389.02;;;17.26;51.49
70916;BME280;58557;50.982;-3.222;2023-04-30T08:28:54;101389.43;;;17.58;50.30
70916;BME280;58557;50.982;-3.222;2023-04-30T08:31:20;101390.24;;;17.32;49.02
70916;BME280;58557;50.982;-3.222;2023-04-30T08:33:45;101389.66;;;17.67;49.01
70916;BME280;58557;50.982;-3.222;2023-04-30T08:36:10;101389.08;;;18.14;48.56
70916;BME280;58557;50.982;-3.222;2023-04-30T08:38:35;101392.26;;;16.99;49.71
70916;BME280;58557;50.982;-3.222;2023-04-30T08:41:07;101390.26;;;16.36;51.88
70916;BME280;58557;50.982;-3.222;2023-04-30T08:43:27;101390.82;;;16.77;52.71
70916;BME280;58557;50.982;-3.222;2023-04-30T08:45:52;101389.59;;;17.33;50.76
70916;BME280;58557;50.982;-3.222;2023-04-30T08:48:18;101394.29;;;17.08;50.57
70916;BME280;58557;50.982;-3.222;2023-04-30T08:50:43;101393.29;;;17.02;52.07
70916;BME280;58557;50.982;-3.222;2023-04-30T08:53:09;101391.04;;;17.16;52.03
70916;BME280;58557;50.982;-3.222;2023-04-30T08:55:34;101390.02;;;17.65;50.76
70916;BME280;58557;50.982;-3.222;2023-04-30T08:57:59;101389.57;;;17.82;49.23
70916;BME280;58557;50.982;-3.222;2023-04-30T09:00:25;101395.16;;;16.57;50.68
70916;BME280;58557;50.982;-3.222;2023-04-30T09:02:50;101392.64;;;18.19;47.59
70916;BME280;58557;50.982;-3.222;2023-04-30T09:05:21;101392.01;;;18.30;47.43
70916;BME280;58557;50.982;-3.222;2023-04-30T09:07:42;101387.89;;;17.78;48.87
70916;BME280;58557;50.982;-3.222;2023-04-30T09:10:15;101385.35;;;17.84;48.60
70916;BME280;58557;50.982;-3.222;2023-04-30T09:12:32;101387.72;;;17.83;49.05
70916;BME280;58557;50.982;-3.222;2023-04-30T09:14:58;101389.27;;;17.68;50.35
70916;BME280;58557;50.982;-3.222;2023-04-30T09:17:22;101391.30;;;17.95;49.19
70916;BME280;58557;50.982;-3.222;2023-04-30T09:19:47;101398.09;;;17.00;51.93
70916;BME280;58557;50.982;-3.222;2023-04-30T09:22:18;101393.59;;;16.34;52.71
70916;BME280;58557;50.982;-3.222;2023-04-30T09:24:44;101393.39;;;15.89;54.76
70916;BME280;58557;50.982;-3.222;2023-04-30T09:27:14;101394.10;;;16.09;54.80
70916;BME280;58557;50.982;-3.222;2023-04-30T09:29:35;101391.49;;;16.64;54.78
70916;BME280;58557;50.982;-3.222;2023-04-30T09:34:29;101392.18;;;16.43;54.18
70916;BME280;58557;50.982;-3.222;2023-04-30T09:36:52;101390.83;;;15.78;56.73
70916;BME280;58557;50.982;-3.222;2023-04-30T09:39:12;101390.60;;;15.75;57.90
70916;BME280;58557;50.982;-3.222;2023-04-30T09:41:38;101391.75;;;16.10;55.82
70916;BME280;58557;50.982;-3.222;2023-04-30T09:44:04;101394.79;;;15.35;58.15
70916;BME280;58557;50.982;-3.222;2023-04-30T09:46:30;101396.75;;;16.13;56.86
70916;BME280;58557;50.982;-3.222;2023-04-30T09:48:58;101398.93;;;15.70;57.68
70916;BME280;58557;50.982;-3.222;2023-04-30T09:51:19;101401.52;;;16.23;57.59
70916;BME280;58557;50.982;-3.222;2023-04-30T09:53:45;101400.24;;;15.36;60.34
70916;BME280;58557;50.982;-3.222;2023-04-30T09:56:11;101401.25;;;15.41;59.69
70916;BME280;58557;50.982;-3.222;2023-04-30T09:58:36;101403.18;;;15.88;57.52
70916;BME280;58557;50.982;-3.222;2023-04-30T10:01:03;101403.45;;;15.90;58.03
70916;BME280;58557;50.982;-3.222;2023-04-30T10:03:27;101402.01;;;16.15;56.44
70916;BME280;58557;50.982;-3.222;2023-04-30T10:05:52;101403.49;;;16.45;55.89
70916;BME280;58557;50.982;-3.222;2023-04-30T10:08:20;101403.53;;;16.41;55.53
70916;BME280;58557;50.982;-3.222;2023-04-30T10:10:44;101402.34;;;16.35;55.26
70916;BME280;58557;50.982;-3.222;2023-04-30T10:13:13;101403.72;;;17.23;54.39
70916;BME280;58557;50.982;-3.222;2023-04-30T10:15:37;101404.04;;;17.19;54.16
70916;BME280;58557;50.982;-3.222;2023-04-30T10:18:03;101406.02;;;16.63;54.73
70916;BME280;58557;50.982;-3.222;2023-04-30T10:20:26;101405.35;;;16.28;55.62
70916;BME280;58557;50.982;-3.222;2023-04-30T10:22:52;101404.75;;;15.93;58.19
70916;BME280;58557;50.982;-3.222;2023-04-30T10:25:17;101403.31;;;16.16;55.60
70916;BME280;58557;50.982;-3.222;2023-04-30T10:27:43;101394.64;;;17.00;54.03
70916;BME280;58557;50.982;-3.222;2023-04-30T10:30:10;101394.64;;;18.07;51.62
70916;BME280;58557;50.982;-3.222;2023-04-30T10:32:40;101392.17;;;17.30;51.21
70916;BME280;58557;50.982;-3.222;2023-04-30T10:35:05;101390.74;;;17.41;50.60
70916;BME280;58557;50.982;-3.222;2023-04-30T10:37:30;101391.45;;;18.30;49.97
70916;BME280;58557;50.982;-3.222;2023-04-30T10:39:50;101387.59;;;17.28;51.46
70916;BME280;58557;50.982;-3.222;2023-04-30T10:42:14;101386.88;;;17.84;51.31
70916;BME280;58557;50.982;-3.222;2023-04-30T10:44:40;101393.72;;;16.98;53.71
70916;BME280;58557;50.982;-3.222;2023-04-30T10:47:06;101384.12;;;17.55;52.17
70916;BME280;58557;50.982;-3.222;2023-04-30T10:49:30;101392.49;;;16.42;55.87
70916;BME280;58557;50.982;-3.222;2023-04-30T10:51:58;101390.77;;;15.57;57.67
70916;BME280;58557;50.982;-3.222;2023-04-30T10:54:25;101393.27;;;16.18;56.23
70916;BME280;58557;50.982;-3.222;2023-04-30T10:56:47;101396.05;;;15.87;57.42
70916;BME280;58557;50.982;-3.222;2023-04-30T10:59:13;101393.20;;;16.60;55.33
70916;BME280;58557;50.982;-3.222;2023-04-30T11:04:05;101391.54;;;15.48;59.01
70916;BME280;58557;50.982;-3.222;2023-04-30T11:08:59;101392.06;;;15.58;58.36
70916;BME280;58557;50.982;-3.222;2023-04-30T11:11:19;101393.71;;;15.95;58.65
70916;BME280;58557;50.982;-3.222;2023-04-30T11:13:47;101389.25;;;16.81;57.09
70916;BME280;58557;50.982;-3.222;2023-04-30T11:16:11;101386.46;;;15.55;58.49
70916;BME280;58557;50.982;-3.222;2023-04-30T11:18:41;101384.36;;;15.23;60.59
70916;BME280;58557;50.982;-3.222;2023-04-30T11:21:01;101381.99;;;15.26;59.95
70916;BME280;58557;50.982;-3.222;2023-04-30T11:23:27;101379.31;;;14.89;62.54
70916;BME280;58557;50.982;-3.222;2023-04-30T11:25:54;101377.11;;;15.23;60.53
70916;BME280;58557;50.982;-3.222;2023-04-30T11:28:19;101374.44;;;15.77;58.34
70916;BME280;58557;50.982;-3.222;2023-04-30T11:30:49;101373.13;;;15.88;57.59
70916;BME280;58557;50.982;-3.222;2023-04-30T11:33:09;101369.48;;;15.55;57.89
70916;BME280;58557;50.982;-3.222;2023-04-30T11:35:34;101368.15;;;15.49;59.39
70916;BME280;58557;50.982;-3.222;2023-04-30T11:38:01;101367.93;;;14.80;61.13
70916;BME280;58557;50.982;-3.222;2023-04-30T11:40:26;101366.28;;;15.36;60.23
70916;BME280;58557;50.982;-3.222;2023-04-30T11:42:51;101367.64;;;15.28;60.81
70916;BME280;58557;50.982;-3.222;2023-04-30T11:45:16;101364.72;;;15.14;60.75
70916;BME280;58557;50.982;-3.222;2023-04-30T11:47:43;101367.88;;;15.65;59.75
70916;BME280;58557;50.982;-3.222;2023-04-30T11:50:09;101367.57;;;16.20;58.99
70916;BME280;58557;50.982;-3.222;2023-04-30T11:52:33;101363.19;;;16.32;57.51
70916;BME280;58557;50.982;-3.222;2023-04-30T11:54:59;101360.70;;;16.21;58.27
70916;BME280;58557;50.982;-3.222;2023-04-30T11:57:24;101358.23;;;16.69;57.85
70916;BME280;58557;50.982;-3.222;2023-04-30T11:59:50;101354.50;;;17.58;54.62
70916;BME280;58557;50.982;-3.222;2023-04-30T12:02:16;101347.85;;;17.91;52.23
70916;BME280;58557;50.982;-3.222;2023-04-30T12:04:42;101347.03;;;19.40;49.59
70916;BME280;58557;50.982;-3.222;2023-04-30T12:07:07;101346.62;;;18.54;51.26
70916;BME280;58557;50.982;-3.222;2023-04-30T12:09:31;101344.34;;;18.11;53.44
70916;BME280;58557;50.982;-3.222;2023-04-30T12:11:57;101347.06;;;16.47;56.55
70916;BME280;58557;50.982;-3.222;2023-04-30T12:14:24;101346.72;;;16.36;59.85
70916;BME280;58557;50.982;-3.222;2023-04-30T12:16:51;101345.38;;;16.67;59.54
70916;BME280;58557;50.982;-3.222;2023-04-30T12:19:14;101342.57;;;16.84;58.56
70916;BME280;58557;50.982;-3.222;2023-04-30T12:21:41;101342.03;;;16.91;58.77
70916;BME280;58557;50.982;-3.222;2023-04-30T12:24:04;101337.39;;;17.14;57.48
70916;BME280;58557;50.982;-3.222;2023-04-30T12:26:35;101333.78;;;18.37;52.78
70916;BME280;58557;50.982;-3.222;2023-04-30T12:28:55;101333.27;;;17.73;53.98
70916;BME280;58557;50.982;-3.222;2023-04-30T12:31:20;101329.78;;;17.40;54.02
70916;BME280;58557;50.982;-3.222;2023-04-30T12:33:54;101327.54;;;18.20;51.84
70916;BME280;58557;50.982;-3.222;2023-04-30T12:36:12;101326.62;;;17.61;53.39
70916;BME280;58557;50.982;-3.222;2023-04-30T12:38:41;101325.70;;;17.91;52.31